sensor_id;sensor_type;location;lat;lon;timestamp;pressure;altitude;pressure_sealevel;temperature;humidity
70546;BME280;58098;51.680;5.134;2023-06-10T00:00:17;101426.47;;;23.32;100.00
70546;BME280;58098;51.680;5.134;2023-06-10T00:02:42;101403.94;;;23.14;100.00
70546;BME280;58098;51.680;5.134;2023-06-10T00:05:09;101425.22;;;23.28;100.00
70546;BME280;58098;51.680;5.134;2023-06-10T00:07:34;101417.16;;;23.22;100.00
70546;BME280;58098;51.680;5.134;2023-06-10T00:10:06;101433.78;;;23.24;100.00
70546;BME280;58098;51.680;5.134;2023-06-10T00:12:32;101422.84;;;23.19;100.00
70546;BME280;58098;51.680;5.134;2023-06-10T00:15:05;101437.81;;;23.20;100.00
70546;BME280;58098;51.680;5.134;2023-06-10T00:17:31;101427.47;;;23.10;100.00
70546;BME280;58098;51.680;5.134;2023-06-10T00:19:57;101434.88;;;23.15;100.00
70546;BME280;58098;51.680;5.134;2023-06-10T00:22:23;101432.63;;;23.12;100.00
70546;BME280;58098;51.680;5.134;2023-06-10T00:24:49;101422.25;;;23.02;100.00
70546;BME280;58098;51.680;5.134;2023-06-10T00:27:16;101437.69;;;23.07;100.00
70546;BME280;58098;51.680;5.134;2023-06-10T00:29:41;101437.22;;;23.03;100.00
70546;BME280;58098;51.680;5.134;2023-06-10T00:32:06;101436.00;;;23.06;100.00
70546;BME280;58098;51.680;5.134;2023-06-10T00:34:32;101442.84;;;22.93;100.00
70546;BME280;58098;51.680;5.134;2023-06-10T00:36:58;101433.88;;;22.80;100.00
70546;BME280;58098;51.680;5.134;2023-06-10T00:39:23;101429.47;;;22.72;100.00
70546;BME280;58098;51.680;5.134;2023-06-10T00:41:48;101443.78;;;22.71;100.00
70546;BME280;58098;51.680;5.134;2023-06-10T00:44:15;101432.84;;;22.52;100.00
70546;BME280;58098;51.680;5.134;2023-06-10T00:46:40;101432.22;;;22.50;100.00
70546;BME280;58098;51.680;5.134;2023-06-10T00:49:05;101435.41;;;22.45;100.00
70546;BME280;58098;51.680;5.134;2023-06-10T00:51:31;101432.84;;;22.37;100.00
70546;BME280;58098;51.680;5.134;2023-06-10T00:53:57;101439.91;;;22.30;100.00
70546;BME280;58098;51.680;5.134;2023-06-10T00:56:22;101424.22;;;22.20;100.00
70546;BME280;58098;51.680;5.134;2023-06-10T00:58:48;101436.69;;;22.20;100.00
70546;BME280;58098;51.680;5.134;2023-06-10T01:01:13;101427.63;;;22.14;100.00
70546;BME280;58098;51.680;5.134;2023-06-10T01:03:39;101438.31;;;22.06;100.00
70546;BME280;58098;51.680;5.134;2023-06-10T01:06:14;101437.97;;;22.09;100.00
70546;BME280;58098;51.680;5.134;2023-06-10T01:11:18;101421.44;;;21.85;100.00
70546;BME280;58098;51.680;5.134;2023-06-10T01:13:45;101437.50;;;21.83;100.00
70546;BME280;58098;51.680;5.134;2023-06-10T01:16:11;101436.22;;;21.79;100.00
70546;BME280;58098;51.680;5.134;2023-06-10T01:18:37;101443.53;;;21.77;100.00
70546;BME280;58098;51.680;5.134;2023-06-10T01:21:04;101435.97;;;21.66;100.00
70546;BME280;58098;51.680;5.134;2023-06-10T01:23:29;101441.19;;;21.59;100.00
70546;BME280;58098;51.680;5.134;2023-06-10T01:26:02;101449.09;;;21.67;100.00
70546;BME280;58098;51.680;5.134;2023-06-10T01:32:01;101456.38;;;21.51;100.00
70546;BME280;58098;51.680;5.134;2023-06-10T01:34:31;101438.44;;;21.22;100.00
70546;BME280;58098;51.680;5.134;2023-06-10T01:36:58;101454.03;;;21.25;100.00
70546;BME280;58098;51.680;5.134;2023-06-10T01:39:24;101448.84;;;21.09;100.00
70546;BME280;58098;51.680;5.134;2023-06-10T01:41:51;101453.50;;;21.07;100.00
70546;BME280;58098;51.680;5.134;2023-06-10T01:44:18;101447.34;;;20.98;100.00
70546;BME280;58098;51.680;5.134;2023-06-10T01:46:44;101444.59;;;20.84;100.00
70546;BME280;58098;51.680;5.134;2023-06-10T01:49:09;101447.81;;;20.71;100.00
70546;BME280;58098;51.680;5.134;2023-06-10T01:51:34;101462.72;;;20.80;100.00
70546;BME280;58098;51.680;5.134;2023-06-10T01:54:01;101456.47;;;20.65;100.00
70546;BME280;58098;51.680;5.134;2023-06-10T01:56:26;101446.88;;;20.56;100.00
70546;BME280;58098;51.680;5.134;2023-06-10T01:58:52;101457.31;;;20.58;100.00
70546;BME280;58098;51.680;5.134;2023-06-10T02:01:20;101456.34;;;20.51;100.00
70546;BME280;58098;51.680;5.134;2023-06-10T02:03:45;101456.34;;;20.42;100.00
70546;BME280;58098;51.680;5.134;2023-06-10T02:06:10;101460.50;;;20.45;100.00
70546;BME280;58098;51.680;5.134;2023-06-10T02:08:36;101453.75;;;20.34;100.00
70546;BME280;58098;51.680;5.134;2023-06-10T02:11:01;101459.34;;;20.39;100.00
70546;BME280;58098;51.680;5.134;2023-06-10T02:13:26;101442.81;;;20.29;100.00
70546;BME280;58098;51.680;5.134;2023-06-10T02:15:52;101462.03;;;20.31;100.00
70546;BME280;58098;51.680;5.134;2023-06-10T02:18:19;101452.75;;;20.27;100.00
70546;BME280;58098;51.680;5.134;2023-06-10T02:20:46;101464.69;;;20.23;100.00
70546;BME280;58098;51.680;5.134;2023-06-10T02:23:11;101460.19;;;20.16;100.00
70546;BME280;58098;51.680;5.134;2023-06-10T02:25:36;101469.97;;;20.15;100.00
70546;BME280;58098;51.680;5.134;2023-06-10T02:28:02;101470.31;;;20.12;100.00
70546;BME280;58098;51.680;5.134;2023-06-10T02:30:28;101460.38;;;20.06;100.00
70546;BME280;58098;51.680;5.134;2023-06-10T02:32:53;101470.97;;;20.06;100.00
70546;BME280;58098;51.680;5.134;2023-06-10T02:35:21;101463.53;;;20.02;100.00
70546;BME280;58098;51.680;5.134;2023-06-10T02:37:49;101464.69;;;19.99;100.00
70546;BME280;58098;51.680;5.134;2023-06-10T02:40:15;101463.38;;;19.95;100.00
70546;BME280;58098;51.680;5.134;2023-06-10T02:42:40;101469.16;;;19.91;100.00
70546;BME280;58098;51.680;5.134;2023-06-10T02:45:06;101474.28;;;19.92;100.00
70546;BME280;58098;51.680;5.134;2023-06-10T02:47:32;101472.47;;;19.85;100.00
70546;BME280;58098;51.680;5.134;2023-06-10T02:49:57;101467.81;;;19.87;100.00
70546;BME280;58098;51.680;5.134;2023-06-10T02:52:22;101462.84;;;19.84;100.00
70546;BME280;58098;51.680;5.134;2023-06-10T02:54:47;101456.09;;;19.73;100.00
70546;BME280;58098;51.680;5.134;2023-06-10T02:57:13;101466.34;;;19.84;100.00
70546;BME280;58098;51.680;5.134;2023-06-10T02:59:39;101467.66;;;19.80;100.00
70546;BME280;58098;51.680;5.134;2023-06-10T03:02:05;101471.28;;;19.79;100.00
70546;BME280;58098;51.680;5.134;2023-06-10T03:04:31;101470.63;;;19.77;100.00
70546;BME280;58098;51.680;5.134;2023-06-10T03:06:56;101471.66;;;19.76;100.00
70546;BME280;58098;51.680;5.134;2023-06-10T03:09:21;101474.63;;;19.73;100.00
70546;BME280;58098;51.680;5.134;2023-06-10T03:11:47;101478.25;;;19.72;100.00
70546;BME280;58098;51.680;5.134;2023-06-10T03:14:12;101472.78;;;19.65;100.00
70546;BME280;58098;51.680;5.134;2023-06-10T03:16:37;101472.63;;;19.59;100.00
70546;BME280;58098;51.680;5.134;2023-06-10T03:19:06;101475.59;;;19.56;100.00
70546;BME280;58098;51.680;5.134;2023-06-10T03:21:31;101456.38;;;19.46;100.00
70546;BME280;58098;51.680;5.134;2023-06-10T03:23:56;101486.84;;;19.58;100.00
70546;BME280;58098;51.680;5.134;2023-06-10T03:26:22;101489.66;;;19.56;100.00
70546;BME280;58098;51.680;5.134;2023-06-10T03:28:47;101484.69;;;19.53;100.00
70546;BME280;58098;51.680;5.134;2023-06-10T03:31:13;101482.19;;;19.52;100.00
70546;BME280;58098;51.680;5.134;2023-06-10T03:33:38;101489.47;;;19.50;100.00
70546;BME280;58098;51.680;5.134;2023-06-10T03:36:04;101484.53;;;19.47;100.00
70546;BME280;58098;51.680;5.134;2023-06-10T03:38:30;101495.91;;;19.47;100.00
70546;BME280;58098;51.680;5.134;2023-06-10T03:40:55;101495.56;;;19.42;100.00
70546;BME280;58098;51.680;5.134;2023-06-10T03:43:20;101502.38;;;19.45;100.00
70546;BME280;58098;51.680;5.134;2023-06-10T03:45:46;101496.28;;;19.44;100.00
70546;BME280;58098;51.680;5.134;2023-06-10T03:48:14;101488.44;;;19.35;100.00
70546;BME280;58098;51.680;5.134;2023-06-10T03:50:40;101489.41;;;19.34;100.00
70546;BME280;58098;51.680;5.134;2023-06-10T03:53:05;101487.94;;;19.31;100.00
70546;BME280;58098;51.680;5.134;2023-06-10T03:55:30;101482.47;;;19.33;100.00
70546;BME280;58098;51.680;5.134;2023-06-10T03:57:56;101480.16;;;19.30;100.00
70546;BME280;58098;51.680;5.134;2023-06-10T04:00:21;101488.09;;;19.30;100.00
70546;BME280;58098;51.680;5.134;2023-06-10T04:02:47;101485.59;;;19.28;100.00
70546;BME280;58098;51.680;5.134;2023-06-10T04:05:15;101490.41;;;19.33;100.00
70546;BME280;58098;51.680;5.134;2023-06-10T04:07:41;101490.41;;;19.25;100.00
70546;BME280;58098;51.680;5.134;2023-06-10T04:10:08;101495.03;;;19.31;100.00
70546;BME280;58098;51.680;5.134;2023-06-10T04:12:34;101492.03;;;19.26;100.00
70546;BME280;58098;51.680;5.134;2023-06-10T04:15:00;101511.13;;;19.37;100.00
70546;BME280;58098;51.680;5.134;2023-06-10T04:17:25;101502.84;;;19.40;100.00
70546;BME280;58098;51.680;5.134;2023-06-10T04:19:51;101498.03;;;19.36;100.00
70546;BME280;58098;51.680;5.134;2023-06-10T04:22:17;101506.34;;;19.41;100.00
70546;BME280;58098;51.680;5.134;2023-06-10T04:24:43;101511.47;;;19.42;100.00
70546;BME280;58098;51.680;5.134;2023-06-10T04:27:08;101497.19;;;19.35;100.00
70546;BME280;58098;51.680;5.134;2023-06-10T04:29:33;101518.75;;;19.40;100.00
70546;BME280;58098;51.680;5.134;2023-06-10T04:31:59;101521.06;;;19.43;100.00
70546;BME280;58098;51.680;5.134;2023-06-10T04:34:26;101522.91;;;19.51;100.00
70546;BME280;58098;51.680;5.134;2023-06-10T04:36:52;101514.63;;;19.46;100.00
70546;BME280;58098;51.680;5.134;2023-06-10T04:39:17;101525.91;;;19.56;100.00
70546;BME280;58098;51.680;5.134;2023-06-10T04:41:43;101520.28;;;19.51;100.00
70546;BME280;58098;51.680;5.134;2023-06-10T04:44:08;101512.16;;;19.52;100.00
70546;BME280;58098;51.680;5.134;2023-06-10T04:46:35;101516.31;;;19.63;100.00
70546;BME280;58098;51.680;5.134;2023-06-10T04:49:01;101523.25;;;19.64;100.00
70546;BME280;58098;51.680;5.134;2023-06-10T04:51:26;101508.56;;;19.61;100.00
70546;BME280;58098;51.680;5.134;2023-06-10T04:53:51;101517.31;;;19.70;100.00
70546;BME280;58098;51.680;5.134;2023-06-10T04:56:17;101527.91;;;19.70;100.00
70546;BME280;58098;51.680;5.134;2023-06-10T04:58:42;101519.31;;;19.68;100.00
70546;BME280;58098;51.680;5.134;2023-06-10T05:01:08;101517.97;;;19.72;100.00
70546;BME280;58098;51.680;5.134;2023-06-10T05:03:33;101531.91;;;19.82;100.00
70546;BME280;58098;51.680;5.134;2023-06-10T05:05:58;101508.88;;;19.74;100.00
70546;BME280;58098;51.680;5.134;2023-06-10T05:08:23;101527.44;;;19.83;100.00
70546;BME280;58098;51.680;5.134;2023-06-10T05:10:49;101532.06;;;19.89;100.00
70546;BME280;58098;51.680;5.134;2023-06-10T05:13:16;101531.44;;;19.95;100.00
70546;BME280;58098;51.680;5.134;2023-06-10T05:15:41;101524.63;;;19.92;100.00
70546;BME280;58098;51.680;5.134;2023-06-10T05:18:10;101533.41;;;20.01;100.00
70546;BME280;58098;51.680;5.134;2023-06-10T05:20:35;101530.94;;;19.99;100.00
70546;BME280;58098;51.680;5.134;2023-06-10T05:23:00;101539.53;;;20.09;100.00
70546;BME280;58098;51.680;5.134;2023-06-10T05:25:26;101532.91;;;20.13;100.00
70546;BME280;58098;51.680;5.134;2023-06-10T05:27:52;101533.56;;;20.15;100.00
70546;BME280;58098;51.680;5.134;2023-06-10T05:30:18;101518.50;;;20.16;100.00
70546;BME280;58098;51.680;5.134;2023-06-10T05:32:44;101522.31;;;20.21;100.00
70546;BME280;58098;51.680;5.134;2023-06-10T05:35:09;101513.06;;;20.25;100.00
70546;BME280;58098;51.680;5.134;2023-06-10T05:37:34;101522.00;;;20.32;100.00
70546;BME280;58098;51.680;5.134;2023-06-10T05:40:02;101521.00;;;20.42;100.00
70546;BME280;58098;51.680;5.134;2023-06-10T05:42:29;101521.97;;;20.49;100.00
70546;BME280;58098;51.680;5.134;2023-06-10T05:44:54;101521.81;;;20.58;100.00
70546;BME280;58098;51.680;5.134;2023-06-10T05:47:20;101518.81;;;20.61;100.00
70546;BME280;58098;51.680;5.134;2023-06-10T05:49:45;101518.13;;;20.67;100.00
70546;BME280;58098;51.680;5.134;2023-06-10T05:52:13;101528.53;;;20.77;100.00
70546;BME280;58098;51.680;5.134;2023-06-10T05:54:38;101526.03;;;20.83;100.00
70546;BME280;58098;51.680;5.134;2023-06-10T05:57:04;101521.22;;;20.87;100.00
70546;BME280;58098;51.680;5.134;2023-06-10T05:59:30;101542.06;;;20.98;100.00
70546;BME280;58098;51.680;5.134;2023-06-10T06:01:56;101536.25;;;21.02;100.00
70546;BME280;58098;51.680;5.134;2023-06-10T06:04:21;101540.72;;;21.10;100.00
70546;BME280;58098;51.680;5.134;2023-06-10T06:06:46;101532.75;;;21.10;100.00
70546;BME280;58098;51.680;5.134;2023-06-10T06:09:12;101543.31;;;21.26;100.00
70546;BME280;58098;51.680;5.134;2023-06-10T06:11:38;101517.75;;;21.25;100.00
70546;BME280;58098;51.680;5.134;2023-06-10T06:14:03;101541.22;;;21.44;100.00
70546;BME280;58098;51.680;5.134;2023-06-10T06:16:28;101528.44;;;21.48;100.00
70546;BME280;58098;51.680;5.134;2023-06-10T06:18:54;101532.34;;;21.60;100.00
70546;BME280;58098;51.680;5.134;2023-06-10T06:21:19;101535.75;;;21.68;100.00
70546;BME280;58098;51.680;5.134;2023-06-10T06:23:44;101534.53;;;21.79;100.00
70546;BME280;58098;51.680;5.134;2023-06-10T06:26:09;101514.75;;;21.82;100.00
70546;BME280;58098;51.680;5.134;2023-06-10T06:28:35;101545.50;;;22.07;100.00
70546;BME280;58098;51.680;5.134;2023-06-10T06:31:00;101538.81;;;22.11;100.00
70546;BME280;58098;51.680;5.134;2023-06-10T06:33:26;101538.75;;;22.19;100.00
70546;BME280;58098;51.680;5.134;2023-06-10T06:35:51;101538.94;;;22.32;100.00
70546;BME280;58098;51.680;5.134;2023-06-10T06:38:17;101526.69;;;22.31;100.00
70546;BME280;58098;51.680;5.134;2023-06-10T06:40:42;101534.50;;;22.47;100.00
70546;BME280;58098;51.680;5.134;2023-06-10T06:43:07;101537.72;;;22.57;100.00
70546;BME280;58098;51.680;5.134;2023-06-10T06:45:33;101542.72;;;22.75;100.00
70546;BME280;58098;51.680;5.134;2023-06-10T06:47:59;101540.22;;;22.73;100.00
70546;BME280;58098;51.680;5.134;2023-06-10T06:50:24;101524.19;;;22.81;100.00
70546;BME280;58098;51.680;5.134;2023-06-10T06:52:49;101530.69;;;22.93;100.00
70546;BME280;58098;51.680;5.134;2023-06-10T06:55:15;101540.13;;;23.11;100.00
70546;BME280;58098;51.680;5.134;2023-06-10T06:57:40;101540.31;;;23.24;100.00
70546;BME280;58098;51.680;5.134;2023-06-10T07:00:06;101550.69;;;23.48;100.00
70546;BME280;58098;51.680;5.134;2023-06-10T07:02:33;101550.53;;;23.56;100.00
70546;BME280;58098;51.680;5.134;2023-06-10T07:04:58;101548.81;;;23.63;100.00
70546;BME280;58098;51.680;5.134;2023-06-10T07:07:24;101554.97;;;23.85;100.00
70546;BME280;58098;51.680;5.134;2023-06-10T07:09:49;101558.38;;;24.00;100.00
70546;BME280;58098;51.680;5.134;2023-06-10T07:12:15;101570.41;;;24.10;100.00
70546;BME280;58098;51.680;5.134;2023-06-10T07:14:40;101553.00;;;24.14;100.00
70546;BME280;58098;51.680;5.134;2023-06-10T07:17:06;101558.84;;;24.24;100.00
70546;BME280;58098;51.680;5.134;2023-06-10T07:19:31;101564.28;;;24.38;100.00
70546;BME280;58098;51.680;5.134;2023-06-10T07:21:56;101564.19;;;24.52;100.00
70546;BME280;58098;51.680;5.134;2023-06-10T07:24:21;101551.94;;;24.58;100.00
70546;BME280;58098;51.680;5.134;2023-06-10T07:26:47;101570.94;;;24.76;100.00
70546;BME280;58098;51.680;5.134;2023-06-10T07:29:12;101555.81;;;24.83;100.00
70546;BME280;58098;51.680;5.134;2023-06-10T07:31:38;101564.13;;;25.01;100.00
70546;BME280;58098;51.680;5.134;2023-06-10T07:34:03;101554.72;;;25.12;100.00
70546;BME280;58098;51.680;5.134;2023-06-10T07:36:28;101553.16;;;25.30;100.00
70546;BME280;58098;51.680;5.134;2023-06-10T07:38:54;101549.16;;;25.47;100.00
70546;BME280;58098;51.680;5.134;2023-06-10T07:41:22;101549.22;;;25.67;100.00
70546;BME280;58098;51.680;5.134;2023-06-10T07:43:47;101559.69;;;25.75;100.00
70546;BME280;58098;51.680;5.134;2023-06-10T07:46:13;101564.47;;;25.80;100.00
70546;BME280;58098;51.680;5.134;2023-06-10T07:48:38;101548.81;;;25.83;100.00
70546;BME280;58098;51.680;5.134;2023-06-10T07:51:03;101558.28;;;25.92;100.00
70546;BME280;58098;51.680;5.134;2023-06-10T07:53:28;101569.47;;;26.29;100.00
70546;BME280;58098;51.680;5.134;2023-06-10T07:55:54;101560.41;;;26.30;100.00
70546;BME280;58098;51.680;5.134;2023-06-10T07:58:19;101560.81;;;26.46;100.00
70546;BME280;58098;51.680;5.134;2023-06-10T08:00:46;101562.22;;;26.68;100.00
70546;BME280;58098;51.680;5.134;2023-06-10T08:03:11;101551.94;;;26.78;100.00
70546;BME280;58098;51.680;5.134;2023-06-10T08:05:37;101562.19;;;26.95;99.40
70546;BME280;58098;51.680;5.134;2023-06-10T08:08:02;101552.53;;;26.94;97.05
70546;BME280;58098;51.680;5.134;2023-06-10T08:10:28;101558.19;;;27.17;99.36
70546;BME280;58098;51.680;5.134;2023-06-10T08:12:53;101552.84;;;27.17;100.00
70546;BME280;58098;51.680;5.134;2023-06-10T08:15:18;101559.78;;;27.37;100.00
70546;BME280;58098;51.680;5.134;2023-06-10T08:17:44;101560.72;;;27.56;100.00
70546;BME280;58098;51.680;5.134;2023-06-10T08:20:09;101546.00;;;27.72;91.13
70546;BME280;58098;51.680;5.134;2023-06-10T08:22:35;101546.44;;;27.69;89.02
70546;BME280;58098;51.680;5.134;2023-06-10T08:25:00;101559.63;;;28.01;87.97
70546;BME280;58098;51.680;5.134;2023-06-10T08:27:25;101557.09;;;28.13;85.91
70546;BME280;58098;51.680;5.134;2023-06-10T08:29:51;101558.13;;;28.12;81.53
70546;BME280;58098;51.680;5.134;2023-06-10T08:32:16;101561.38;;;28.21;77.47
70546;BME280;58098;51.680;5.134;2023-06-10T08:34:41;101570.88;;;28.41;79.56
70546;BME280;58098;51.680;5.134;2023-06-10T08:37:07;101567.09;;;28.49;73.13
70546;BME280;58098;51.680;5.134;2023-06-10T08:39:32;101566.34;;;28.66;74.98
70546;BME280;58098;51.680;5.134;2023-06-10T08:42:25;101573.47;;;29.15;81.30
70546;BME280;58098;51.680;5.134;2023-06-10T08:44:54;101557.63;;;29.07;69.08
70546;BME280;58098;51.680;5.134;2023-06-10T08:47:24;101565.94;;;29.06;67.33
70546;BME280;58098;51.680;5.134;2023-06-10T08:49:50;101564.19;;;29.11;68.00
70546;BME280;58098;51.680;5.134;2023-06-10T08:52:19;101565.38;;;29.52;72.87
70546;BME280;58098;51.680;5.134;2023-06-10T08:54:59;101570.16;;;29.79;70.95
70546;BME280;58098;51.680;5.134;2023-06-10T08:57:26;101563.88;;;29.67;60.43
70546;BME280;58098;51.680;5.134;2023-06-10T08:59:52;101554.28;;;30.01;62.06
70546;BME280;58098;51.680;5.134;2023-06-10T09:02:18;101554.47;;;30.18;67.06
70546;BME280;58098;51.680;5.134;2023-06-10T09:04:46;101560.88;;;30.28;63.28
70546;BME280;58098;51.680;5.134;2023-06-10T09:07:14;101561.41;;;30.48;62.09
70546;BME280;58098;51.680;5.134;2023-06-10T09:09:42;101526.13;;;30.27;59.59
70546;BME280;58098;51.680;5.134;2023-06-10T09:12:08;101543.00;;;30.45;56.71
70546;BME280;58098;51.680;5.134;2023-06-10T09:14:33;101549.09;;;30.52;57.39
70546;BME280;58098;51.680;5.134;2023-06-10T09:16:59;101546.00;;;30.84;57.02
70546;BME280;58098;51.680;5.134;2023-06-10T09:19:28;101556.00;;;30.95;56.17
70546;BME280;58098;51.680;5.134;2023-06-10T09:21:53;101544.94;;;31.08;52.97
70546;BME280;58098;51.680;5.134;2023-06-10T09:24:20;101556.69;;;31.30;56.21
70546;BME280;58098;51.680;5.134;2023-06-10T09:26:45;101560.84;;;31.21;51.68
70546;BME280;58098;51.680;5.134;2023-06-10T09:29:11;101555.97;;;31.91;57.02
70546;BME280;58098;51.680;5.134;2023-06-10T09:31:38;101559.22;;;31.76;53.38
70546;BME280;58098;51.680;5.134;2023-06-10T09:34:10;101559.13;;;32.33;55.75
70546;BME280;58098;51.680;5.134;2023-06-10T09:36:37;101551.66;;;32.23;52.32
70546;BME280;58098;51.680;5.134;2023-06-10T09:39:03;101560.13;;;32.10;48.69
70546;BME280;58098;51.680;5.134;2023-06-10T09:41:33;101549.69;;;32.52;51.27
70546;BME280;58098;51.680;5.134;2023-06-10T09:43:59;101553.72;;;32.66;52.29
70546;BME280;58098;51.680;5.134;2023-06-10T09:46:30;101560.53;;;32.74;51.45
70546;BME280;58098;51.680;5.134;2023-06-10T09:48:57;101546.84;;;32.58;46.68
70546;BME280;58098;51.680;5.134;2023-06-10T09:51:23;101549.34;;;32.65;47.73
70546;BME280;58098;51.680;5.134;2023-06-10T09:53:51;101544.84;;;32.54;48.69
70546;BME280;58098;51.680;5.134;2023-06-10T09:56:16;101539.44;;;32.54;47.82
70546;BME280;58098;51.680;5.134;2023-06-10T09:58:42;101537.91;;;33.01;51.15
70546;BME280;58098;51.680;5.134;2023-06-10T10:01:11;101534.66;;;32.99;48.67
70546;BME280;58098;51.680;5.134;2023-06-10T10:03:47;101531.31;;;33.36;48.12
70546;BME280;58098;51.680;5.134;2023-06-10T10:06:14;101533.53;;;33.17;44.78
70546;BME280;58098;51.680;5.134;2023-06-10T10:08:39;101539.03;;;33.27;47.72
70546;BME280;58098;51.680;5.134;2023-06-10T10:11:05;101533.22;;;33.13;45.26
70546;BME280;58098;51.680;5.134;2023-06-10T10:13:35;101530.00;;;33.65;47.19
70546;BME280;58098;51.680;5.134;2023-06-10T10:16:11;101525.75;;;33.74;44.74
70546;BME280;58098;51.680;5.134;2023-06-10T10:18:39;101523.53;;;33.71;43.28
70546;BME280;58098;51.680;5.134;2023-06-10T10:21:11;101518.78;;;33.83;44.78
70546;BME280;58098;51.680;5.134;2023-06-10T10:26:26;101524.56;;;34.28;43.88
70546;BME280;58098;51.680;5.134;2023-06-10T10:29:03;101525.69;;;34.01;44.81
70546;BME280;58098;51.680;5.134;2023-06-10T10:31:32;101525.78;;;33.52;43.53
70546;BME280;58098;51.680;5.134;2023-06-10T10:34:05;101513.16;;;33.58;45.74
70546;BME280;58098;51.680;5.134;2023-06-10T10:36:31;101520.03;;;34.02;45.25
70546;BME280;58098;51.680;5.134;2023-06-10T10:38:57;101522.31;;;34.15;46.03
70546;BME280;58098;51.680;5.134;2023-06-10T10:41:24;101522.09;;;33.90;46.16
70546;BME280;58098;51.680;5.134;2023-06-10T10:43:51;101517.56;;;34.01;44.97
70546;BME280;58098;51.680;5.134;2023-06-10T10:46:17;101515.22;;;34.09;46.40
70546;BME280;58098;51.680;5.134;2023-06-10T10:48:43;101520.72;;;33.87;47.00
70546;BME280;58098;51.680;5.134;2023-06-10T10:51:10;101510.22;;;33.38;46.60
70546;BME280;58098;51.680;5.134;2023-06-10T10:53:38;101516.28;;;33.50;47.29
70546;BME280;58098;51.680;5.134;2023-06-10T10:56:12;101526.66;;;33.84;47.36
70546;BME280;58098;51.680;5.134;2023-06-10T10:58:38;101513.47;;;34.30;48.19
70546;BME280;58098;51.680;5.134;2023-06-10T11:01:14;101506.28;;;33.77;44.99
70546;BME280;58098;51.680;5.134;2023-06-10T11:03:46;101512.38;;;33.94;47.78
70546;BME280;58098;51.680;5.134;2023-06-10T11:06:16;101512.38;;;33.62;47.00
70546;BME280;58098;51.680;5.134;2023-06-10T11:11:27;101509.94;;;34.24;44.81
70546;BME280;58098;51.680;5.134;2023-06-10T11:16:28;101502.19;;;34.48;43.68
70546;BME280;58098;51.680;5.134;2023-06-10T11:18:54;101500.56;;;34.52;44.02
70546;BME280;58098;51.680;5.134;2023-06-10T11:21:20;101507.09;;;34.51;42.53
70546;BME280;58098;51.680;5.134;2023-06-10T11:23:46;101496.19;;;34.41;42.73
70546;BME280;58098;51.680;5.134;2023-06-10T11:26:22;101499.31;;;34.23;41.60
70546;BME280;58098;51.680;5.134;2023-06-10T11:31:29;101490.44;;;34.84;41.62
70546;BME280;58098;51.680;5.134;2023-06-10T11:33:59;101493.91;;;34.70;44.05
70546;BME280;58098;51.680;5.134;2023-06-10T11:36:26;101489.28;;;34.65;44.05
70546;BME280;58098;51.680;5.134;2023-06-10T11:39:03;101480.25;;;35.17;41.42
70546;BME280;58098;51.680;5.134;2023-06-10T11:41:30;101477.63;;;34.65;40.22
70546;BME280;58098;51.680;5.134;2023-06-10T11:44:00;101493.75;;;34.44;40.12
70546;BME280;58098;51.680;5.134;2023-06-10T11:46:26;101477.50;;;34.49;41.36
70546;BME280;58098;51.680;5.134;2023-06-10T11:48:54;101477.41;;;34.86;41.58
70546;BME280;58098;51.680;5.134;2023-06-10T11:51:19;101478.91;;;35.14;39.40
70546;BME280;58098;51.680;5.134;2023-06-10T11:53:47;101475.78;;;34.90;39.12
70546;BME280;58098;51.680;5.134;2023-06-10T11:56:13;101488.09;;;35.08;40.17
70546;BME280;58098;51.680;5.134;2023-06-10T11:58:43;101478.13;;;35.34;38.29
70546;BME280;58098;51.680;5.134;2023-06-10T12:01:10;101460.06;;;36.59;37.31
70546;BME280;58098;51.680;5.134;2023-06-10T12:03:36;101457.13;;;36.50;38.25
70546;BME280;58098;51.680;5.134;2023-06-10T12:06:06;101466.06;;;37.10;37.48
70546;BME280;58098;51.680;5.134;2023-06-10T12:08:32;101458.84;;;37.29;33.78
70546;BME280;58098;51.680;5.134;2023-06-10T12:10:58;101458.53;;;37.74;34.60
70546;BME280;58098;51.680;5.134;2023-06-10T12:13:26;101468.00;;;38.10;31.74
70546;BME280;58098;51.680;5.134;2023-06-10T12:15:52;101452.19;;;37.84;30.99
70546;BME280;58098;51.680;5.134;2023-06-10T12:18:19;101458.00;;;38.29;31.09
70546;BME280;58098;51.680;5.134;2023-06-10T12:20:45;101451.78;;;38.90;31.66
70546;BME280;58098;51.680;5.134;2023-06-10T12:23:11;101457.81;;;39.43;30.64
70546;BME280;58098;51.680;5.134;2023-06-10T12:25:37;101447.50;;;39.21;29.76
70546;BME280;58098;51.680;5.134;2023-06-10T12:28:04;101450.56;;;39.84;30.66
70546;BME280;58098;51.680;5.134;2023-06-10T12:30:31;101444.53;;;40.28;29.06
70546;BME280;58098;51.680;5.134;2023-06-10T12:32:57;101446.66;;;40.58;28.79
70546;BME280;58098;51.680;5.134;2023-06-10T12:35:24;101436.97;;;41.46;29.68
70546;BME280;58098;51.680;5.134;2023-06-10T12:40:32;101433.59;;;41.49;27.98
70546;BME280;58098;51.680;5.134;2023-06-10T12:42:58;101443.78;;;40.77;26.74
70546;BME280;58098;51.680;5.134;2023-06-10T12:45:31;101435.31;;;41.67;26.46
70546;BME280;58098;51.680;5.134;2023-06-10T12:48:10;101447.63;;;42.40;25.63
70546;BME280;58098;51.680;5.134;2023-06-10T12:50:38;101445.88;;;41.74;24.15
70546;BME280;58098;51.680;5.134;2023-06-10T12:53:04;101431.59;;;41.63;24.53
70546;BME280;58098;51.680;5.134;2023-06-10T12:55:30;101431.44;;;41.68;24.67
70546;BME280;58098;51.680;5.134;2023-06-10T12:57:56;101444.22;;;42.43;25.20